Pagrindinis puslapis
METAR-TAF:

METAR-TAF

Oro uostai :

Puerto Viljamsas, Čilė

platuma: 54-56-00S, ilguma: 067-37-00W, Aukštis: 27 m

Dabartinis oras

Ataskaita buvo paskelbta 14 valandos ir 16 minutes, ne 19:00 UTC
Vėjas 13 kt iš Šiaurės Vakarų
Temperatūra 8°C
Drėgmė 57%
Slėgis 1003 hPa
Matomumas 10 km arba daugiau
Išsisklaidę debesys ne aukštis 3600 ft
Su prošvaistėmis ne aukštis 8000 ft

METAR: SCGZ 191900Z 31013KT 9999 SCT036 BKN080 08/00 Q1003

Laikas: 05:16 (09:16 UTC)


TAF: trūkstamas

Orai ataskaitas ir orų prognozės (METAR, TAF).

turimą stotys yra geltonos ir raudonos taškus žemėlapyje.

Perkelti pele per norėdami pamatyti stoties vardą.

Tada spustelėkite, norėdami matyti oro stebėjimo ir prognozės.

Norėdami pakeisti žemėlapį: spustelėkite ant žalios mygtukų su juodo kryžiaus žemyn,; žalią mygtuką su brūkšneliu, jei norite nutolinti; arba žalių rodyklių gretimoms žemėlapius.


METAR-TAF: